sensor_id;sensor_type;location;lat;lon;timestamp;pressure;altitude;pressure_sealevel;temperature;humidity
9335;BME280;4706;41.844;26.082;2023-01-26T00:01:24;101694.97;;;6.12;73.03
9335;BME280;4706;41.844;26.082;2023-01-26T00:03:51;101692.25;;;6.12;73.72
9335;BME280;4706;41.844;26.082;2023-01-26T00:06:18;101693.81;;;6.07;74.01
9335;BME280;4706;41.844;26.082;2023-01-26T00:08:50;101692.94;;;6.19;73.63
9335;BME280;4706;41.844;26.082;2023-01-26T00:11:20;101675.03;;;6.11;73.90
9335;BME280;4706;41.844;26.082;2023-01-26T00:13:52;101678.69;;;6.17;74.13
9335;BME280;4706;41.844;26.082;2023-01-26T00:16:19;101676.81;;;6.17;73.94
9335;BME280;4706;41.844;26.082;2023-01-26T00:18:45;101669.56;;;6.11;74.12
9335;BME280;4706;41.844;26.082;2023-01-26T00:21:16;101671.69;;;6.21;73.52
9335;BME280;4706;41.844;26.082;2023-01-26T00:23:42;101679.22;;;6.30;74.04
9335;BME280;4706;41.844;26.082;2023-01-26T00:26:14;101662.16;;;6.23;73.98
9335;BME280;4706;41.844;26.082;2023-01-26T00:28:40;101656.59;;;6.18;73.77
9335;BME280;4706;41.844;26.082;2023-01-26T00:31:11;101662.81;;;6.30;74.43
9335;BME280;4706;41.844;26.082;2023-01-26T00:33:37;101666.38;;;6.31;73.53
9335;BME280;4706;41.844;26.082;2023-01-26T00:36:03;101670.47;;;6.28;73.56
9335;BME280;4706;41.844;26.082;2023-01-26T00:38:28;101665.03;;;6.17;73.86
9335;BME280;4706;41.844;26.082;2023-01-26T00:40:54;101657.22;;;6.08;75.28
9335;BME280;4706;41.844;26.082;2023-01-26T00:43:19;101661.72;;;6.15;74.25
9335;BME280;4706;41.844;26.082;2023-01-26T00:45:45;101655.09;;;6.11;75.40
9335;BME280;4706;41.844;26.082;2023-01-26T00:48:10;101658.16;;;6.14;75.17
9335;BME280;4706;41.844;26.082;2023-01-26T00:50:36;101651.22;;;6.23;74.71
9335;BME280;4706;41.844;26.082;2023-01-26T00:53:01;101655.03;;;6.22;74.52
9335;BME280;4706;41.844;26.082;2023-01-26T00:55:27;101649.16;;;6.14;74.74
9335;BME280;4706;41.844;26.082;2023-01-26T00:58:06;101640.94;;;6.14;74.87
9335;BME280;4706;41.844;26.082;2023-01-26T01:00:33;101637.47;;;6.18;74.89
9335;BME280;4706;41.844;26.082;2023-01-26T01:02:59;101629.44;;;6.12;75.42
9335;BME280;4706;41.844;26.082;2023-01-26T01:05:28;101631.69;;;6.15;75.26
9335;BME280;4706;41.844;26.082;2023-01-26T01:07:54;101623.06;;;6.23;74.93
9335;BME280;4706;41.844;26.082;2023-01-26T01:10:20;101609.25;;;6.29;74.98
9335;BME280;4706;41.844;26.082;2023-01-26T01:12:46;101602.75;;;6.47;74.32
9335;BME280;4706;41.844;26.082;2023-01-26T01:15:11;101599.41;;;6.45;74.59
9335;BME280;4706;41.844;26.082;2023-01-26T01:17:37;101593.63;;;6.42;74.52
9335;BME280;4706;41.844;26.082;2023-01-26T01:20:04;101593.47;;;6.48;73.59
9335;BME280;4706;41.844;26.082;2023-01-26T01:22:31;101590.22;;;6.35;74.42
9335;BME280;4706;41.844;26.082;2023-01-26T01:24:56;101585.88;;;6.05;75.13
9335;BME280;4706;41.844;26.082;2023-01-26T01:27:22;101584.97;;;6.16;75.76
9335;BME280;4706;41.844;26.082;2023-01-26T01:29:49;101583.91;;;6.17;75.23
9335;BME280;4706;41.844;26.082;2023-01-26T01:32:14;101587.63;;;6.28;74.88
9335;BME280;4706;41.844;26.082;2023-01-26T01:34:40;101586.72;;;6.22;74.96
9335;BME280;4706;41.844;26.082;2023-01-26T01:37:05;101597.72;;;6.11;74.94
9335;BME280;4706;41.844;26.082;2023-01-26T01:39:31;101602.44;;;6.15;75.33
9335;BME280;4706;41.844;26.082;2023-01-26T01:41:56;101602.72;;;6.14;75.40
9335;BME280;4706;41.844;26.082;2023-01-26T01:44:24;101579.59;;;6.04;75.51
9335;BME280;4706;41.844;26.082;2023-01-26T01:46:58;101588.13;;;6.08;75.78
9335;BME280;4706;41.844;26.082;2023-01-26T01:49:35;101597.31;;;6.19;75.23
9335;BME280;4706;41.844;26.082;2023-01-26T01:52:15;101596.41;;;6.13;75.08
9335;BME280;4706;41.844;26.082;2023-01-26T01:54:46;101599.81;;;6.20;75.33
9335;BME280;4706;41.844;26.082;2023-01-26T01:57:18;101590.03;;;6.07;75.79
9335;BME280;4706;41.844;26.082;2023-01-26T02:00:04;101589.81;;;5.97;76.32
9335;BME280;4706;41.844;26.082;2023-01-26T02:02:30;101591.59;;;6.03;75.57
9335;BME280;4706;41.844;26.082;2023-01-26T02:05:01;101596.50;;;6.18;75.22
9335;BME280;4706;41.844;26.082;2023-01-26T02:07:31;101586.88;;;6.16;75.24
9335;BME280;4706;41.844;26.082;2023-01-26T02:09:57;101590.38;;;6.11;74.85
9335;BME280;4706;41.844;26.082;2023-01-26T02:12:54;101586.13;;;6.20;75.25
9335;BME280;4706;41.844;26.082;2023-01-26T02:15:21;101581.00;;;6.07;74.59
9335;BME280;4706;41.844;26.082;2023-01-26T02:17:47;101566.19;;;6.03;74.77
9335;BME280;4706;41.844;26.082;2023-01-26T02:20:28;101573.38;;;5.92;75.52
9335;BME280;4706;41.844;26.082;2023-01-26T02:23:08;101561.97;;;5.95;75.52
9335;BME280;4706;41.844;26.082;2023-01-26T02:25:37;101559.16;;;6.07;75.45
9335;BME280;4706;41.844;26.082;2023-01-26T02:28:04;101555.31;;;5.91;76.12
9335;BME280;4706;41.844;26.082;2023-01-26T02:30:31;101553.50;;;5.97;75.69
9335;BME280;4706;41.844;26.082;2023-01-26T02:32:56;101550.78;;;5.97;76.15
9335;BME280;4706;41.844;26.082;2023-01-26T02:35:22;101534.56;;;6.07;76.01
9335;BME280;4706;41.844;26.082;2023-01-26T02:37:48;101536.00;;;6.10;76.22
9335;BME280;4706;41.844;26.082;2023-01-26T02:42:54;101527.63;;;6.16;75.91
9335;BME280;4706;41.844;26.082;2023-01-26T02:45:20;101544.41;;;6.08;75.56
9335;BME280;4706;41.844;26.082;2023-01-26T02:47:46;101550.03;;;6.01;76.17
9335;BME280;4706;41.844;26.082;2023-01-26T02:50:12;101529.94;;;6.07;76.56
9335;BME280;4706;41.844;26.082;2023-01-26T02:52:38;101538.38;;;6.23;75.39
9335;BME280;4706;41.844;26.082;2023-01-26T02:55:04;101539.22;;;6.23;75.20
9335;BME280;4706;41.844;26.082;2023-01-26T02:57:50;101531.44;;;6.15;75.53
9335;BME280;4706;41.844;26.082;2023-01-26T03:00:22;101523.66;;;6.07;75.72
9335;BME280;4706;41.844;26.082;2023-01-26T03:02:49;101534.91;;;6.11;75.68
9335;BME280;4706;41.844;26.082;2023-01-26T03:05:15;101540.38;;;6.11;76.33
9335;BME280;4706;41.844;26.082;2023-01-26T03:07:41;101533.75;;;6.06;76.46
9335;BME280;4706;41.844;26.082;2023-01-26T03:10:07;101534.75;;;6.17;75.82
9335;BME280;4706;41.844;26.082;2023-01-26T03:12:33;101529.38;;;6.22;75.16
9335;BME280;4706;41.844;26.082;2023-01-26T03:14:58;101535.41;;;6.24;75.23
9335;BME280;4706;41.844;26.082;2023-01-26T03:17:42;101519.25;;;6.23;75.61
9335;BME280;4706;41.844;26.082;2023-01-26T03:20:09;101529.69;;;6.26;75.39
9335;BME280;4706;41.844;26.082;2023-01-26T03:22:54;101529.69;;;6.26;75.92
9335;BME280;4706;41.844;26.082;2023-01-26T03:25:38;101521.44;;;6.21;76.23
9335;BME280;4706;41.844;26.082;2023-01-26T03:28:22;101531.25;;;6.05;76.58
9335;BME280;4706;41.844;26.082;2023-01-26T03:30:48;101529.44;;;6.11;76.50
9335;BME280;4706;41.844;26.082;2023-01-26T03:33:15;101519.59;;;6.10;76.76
9335;BME280;4706;41.844;26.082;2023-01-26T03:35:41;101513.72;;;6.18;76.43
9335;BME280;4706;41.844;26.082;2023-01-26T03:38:06;101509.50;;;6.10;76.87
9335;BME280;4706;41.844;26.082;2023-01-26T03:40:32;101512.56;;;6.14;76.13
9335;BME280;4706;41.844;26.082;2023-01-26T03:43:16;101505.53;;;6.18;76.51
9335;BME280;4706;41.844;26.082;2023-01-26T03:46:02;101499.41;;;6.11;76.38
9335;BME280;4706;41.844;26.082;2023-01-26T03:48:46;101489.91;;;6.13;76.38
9335;BME280;4706;41.844;26.082;2023-01-26T03:51:30;101488.22;;;6.12;77.03
9335;BME280;4706;41.844;26.082;2023-01-26T03:54:14;101478.63;;;6.10;76.70
9335;BME280;4706;41.844;26.082;2023-01-26T03:56:58;101478.69;;;6.15;77.05
9335;BME280;4706;41.844;26.082;2023-01-26T03:59:23;101469.75;;;6.36;77.44
9335;BME280;4706;41.844;26.082;2023-01-26T04:02:06;101466.75;;;6.38;76.76
9335;BME280;4706;41.844;26.082;2023-01-26T04:04:50;101458.88;;;6.41;76.05
9335;BME280;4706;41.844;26.082;2023-01-26T04:07:35;101459.22;;;6.45;76.89
9335;BME280;4706;41.844;26.082;2023-01-26T04:10:19;101453.47;;;6.46;76.67
9335;BME280;4706;41.844;26.082;2023-01-26T04:12:45;101446.88;;;6.42;75.81
9335;BME280;4706;41.844;26.082;2023-01-26T04:15:29;101447.63;;;6.38;75.99
9335;BME280;4706;41.844;26.082;2023-01-26T04:18:13;101444.63;;;6.39;76.60
9335;BME280;4706;41.844;26.082;2023-01-26T04:20:56;101451.50;;;6.42;76.53
9335;BME280;4706;41.844;26.082;2023-01-26T04:23:40;101451.19;;;6.38;76.90
9335;BME280;4706;41.844;26.082;2023-01-26T04:26:06;101444.75;;;6.27;77.22
9335;BME280;4706;41.844;26.082;2023-01-26T04:28:31;101449.22;;;6.33;76.62
9335;BME280;4706;41.844;26.082;2023-01-26T04:30:56;101452.28;;;6.37;76.54
9335;BME280;4706;41.844;26.082;2023-01-26T04:33:22;101446.97;;;6.47;76.00
9335;BME280;4706;41.844;26.082;2023-01-26T04:35:47;101446.53;;;6.55;76.30
9335;BME280;4706;41.844;26.082;2023-01-26T04:38:13;101445.06;;;6.48;76.76
9335;BME280;4706;41.844;26.082;2023-01-26T04:40:38;101450.09;;;6.39;77.12
9335;BME280;4706;41.844;26.082;2023-01-26T04:43:04;101448.22;;;6.40;76.74
9335;BME280;4706;41.844;26.082;2023-01-26T04:45:29;101449.78;;;6.36;76.95
9335;BME280;4706;41.844;26.082;2023-01-26T04:47:55;101456.59;;;6.33;76.48
9335;BME280;4706;41.844;26.082;2023-01-26T04:50:20;101462.13;;;6.38;76.27
9335;BME280;4706;41.844;26.082;2023-01-26T04:52:46;101448.00;;;6.24;76.55
9335;BME280;4706;41.844;26.082;2023-01-26T04:55:11;101460.69;;;6.36;76.59
9335;BME280;4706;41.844;26.082;2023-01-26T04:57:37;101463.81;;;6.22;77.34
9335;BME280;4706;41.844;26.082;2023-01-26T05:00:03;101461.06;;;6.22;77.51
9335;BME280;4706;41.844;26.082;2023-01-26T05:02:29;101442.22;;;6.21;77.16
9335;BME280;4706;41.844;26.082;2023-01-26T05:04:54;101430.44;;;6.20;77.99
9335;BME280;4706;41.844;26.082;2023-01-26T05:07:20;101431.09;;;6.27;77.25
9335;BME280;4706;41.844;26.082;2023-01-26T05:09:45;101432.66;;;6.23;77.81
9335;BME280;4706;41.844;26.082;2023-01-26T05:12:11;101432.16;;;6.26;77.27
9335;BME280;4706;41.844;26.082;2023-01-26T05:14:54;101431.50;;;6.19;77.18
9335;BME280;4706;41.844;26.082;2023-01-26T05:17:20;101424.91;;;6.15;77.76
9335;BME280;4706;41.844;26.082;2023-01-26T05:19:45;101431.00;;;6.22;77.90
9335;BME280;4706;41.844;26.082;2023-01-26T05:22:11;101444.34;;;6.19;77.62
9335;BME280;4706;41.844;26.082;2023-01-26T05:24:36;101443.09;;;6.26;77.71
9335;BME280;4706;41.844;26.082;2023-01-26T05:27:02;101433.25;;;6.25;77.66
9335;BME280;4706;41.844;26.082;2023-01-26T05:29:46;101429.69;;;6.25;77.87
9335;BME280;4706;41.844;26.082;2023-01-26T05:32:12;101429.19;;;6.28;77.26
9335;BME280;4706;41.844;26.082;2023-01-26T05:34:38;101426.97;;;6.25;77.70
9335;BME280;4706;41.844;26.082;2023-01-26T05:37:04;101419.28;;;6.22;77.88
9335;BME280;4706;41.844;26.082;2023-01-26T05:39:29;101411.22;;;6.32;77.69
9335;BME280;4706;41.844;26.082;2023-01-26T05:41:55;101411.13;;;6.27;77.98
9335;BME280;4706;41.844;26.082;2023-01-26T05:44:22;101402.88;;;6.22;78.11
9335;BME280;4706;41.844;26.082;2023-01-26T05:46:47;101407.59;;;6.26;78.30
9335;BME280;4706;41.844;26.082;2023-01-26T05:49:13;101410.81;;;6.23;78.13
9335;BME280;4706;41.844;26.082;2023-01-26T05:51:38;101416.38;;;6.28;78.42
9335;BME280;4706;41.844;26.082;2023-01-26T05:54:04;101408.56;;;6.37;77.21
9335;BME280;4706;41.844;26.082;2023-01-26T05:56:30;101428.19;;;6.34;77.68
9335;BME280;4706;41.844;26.082;2023-01-26T05:58:55;101431.19;;;6.32;78.03
9335;BME280;4706;41.844;26.082;2023-01-26T06:01:20;101427.34;;;6.33;77.90
9335;BME280;4706;41.844;26.082;2023-01-26T06:03:46;101429.50;;;6.31;77.62
9335;BME280;4706;41.844;26.082;2023-01-26T06:06:11;101434.47;;;6.35;78.01
9335;BME280;4706;41.844;26.082;2023-01-26T06:08:37;101430.03;;;6.28;78.83
9335;BME280;4706;41.844;26.082;2023-01-26T06:11:02;101418.19;;;6.23;77.89
9335;BME280;4706;41.844;26.082;2023-01-26T06:13:28;101422.88;;;6.27;78.48
9335;BME280;4706;41.844;26.082;2023-01-26T06:15:54;101418.19;;;6.23;78.51
9335;BME280;4706;41.844;26.082;2023-01-26T06:18:19;101428.13;;;6.29;78.49
9335;BME280;4706;41.844;26.082;2023-01-26T06:20:45;101420.75;;;6.29;77.77
9335;BME280;4706;41.844;26.082;2023-01-26T06:23:10;101417.41;;;6.27;77.94
9335;BME280;4706;41.844;26.082;2023-01-26T06:25:37;101419.31;;;6.27;77.82
9335;BME280;4706;41.844;26.082;2023-01-26T06:28:06;101415.78;;;6.26;78.31
9335;BME280;4706;41.844;26.082;2023-01-26T06:30:31;101415.34;;;6.35;79.07
9335;BME280;4706;41.844;26.082;2023-01-26T06:32:59;101417.91;;;6.41;78.01
9335;BME280;4706;41.844;26.082;2023-01-26T06:35:25;101414.09;;;6.42;78.09
9335;BME280;4706;41.844;26.082;2023-01-26T06:37:53;101412.94;;;6.38;78.64
9335;BME280;4706;41.844;26.082;2023-01-26T06:40:18;101411.63;;;6.41;78.97
9335;BME280;4706;41.844;26.082;2023-01-26T06:42:48;101409.63;;;6.58;77.92
9335;BME280;4706;41.844;26.082;2023-01-26T06:45:15;101401.53;;;6.63;76.89
9335;BME280;4706;41.844;26.082;2023-01-26T06:47:48;101391.41;;;6.64;76.90
9335;BME280;4706;41.844;26.082;2023-01-26T06:50:19;101389.69;;;6.57;77.38
9335;BME280;4706;41.844;26.082;2023-01-26T06:52:50;101380.75;;;6.62;77.83
9335;BME280;4706;41.844;26.082;2023-01-26T06:55:32;101389.88;;;6.51;77.92
9335;BME280;4706;41.844;26.082;2023-01-26T06:57:59;101400.81;;;6.51;77.35
9335;BME280;4706;41.844;26.082;2023-01-26T07:00:24;101398.09;;;6.51;77.66
9335;BME280;4706;41.844;26.082;2023-01-26T07:02:50;101392.94;;;6.54;77.59
9335;BME280;4706;41.844;26.082;2023-01-26T07:05:15;101388.03;;;6.35;77.71
9335;BME280;4706;41.844;26.082;2023-01-26T07:07:41;101388.44;;;6.43;78.13
9335;BME280;4706;41.844;26.082;2023-01-26T07:10:06;101371.97;;;6.60;77.60
9335;BME280;4706;41.844;26.082;2023-01-26T07:12:43;101371.38;;;6.58;77.58
9335;BME280;4706;41.844;26.082;2023-01-26T07:15:10;101366.63;;;6.70;76.54
9335;BME280;4706;41.844;26.082;2023-01-26T07:17:38;101346.03;;;6.63;77.61
9335;BME280;4706;41.844;26.082;2023-01-26T07:20:04;101349.91;;;6.67;77.16
9335;BME280;4706;41.844;26.082;2023-01-26T07:22:29;101340.41;;;6.74;78.06
9335;BME280;4706;41.844;26.082;2023-01-26T07:24:55;101324.84;;;6.75;78.65
9335;BME280;4706;41.844;26.082;2023-01-26T07:27:21;101328.75;;;6.84;78.23
9335;BME280;4706;41.844;26.082;2023-01-26T07:29:46;101320.34;;;6.91;77.57
9335;BME280;4706;41.844;26.082;2023-01-26T07:32:12;101310.53;;;6.95;77.50
9335;BME280;4706;41.844;26.082;2023-01-26T07:34:37;101304.56;;;6.98;78.13
9335;BME280;4706;41.844;26.082;2023-01-26T07:37:03;101310.03;;;6.98;78.11
9335;BME280;4706;41.844;26.082;2023-01-26T07:39:30;101313.28;;;6.95;77.40
9335;BME280;4706;41.844;26.082;2023-01-26T07:41:55;101322.72;;;6.82;77.82
9335;BME280;4706;41.844;26.082;2023-01-26T07:44:21;101328.66;;;6.74;77.66
9335;BME280;4706;41.844;26.082;2023-01-26T07:46:46;101320.00;;;6.82;77.38
9335;BME280;4706;41.844;26.082;2023-01-26T07:49:12;101334.75;;;6.81;77.84
9335;BME280;4706;41.844;26.082;2023-01-26T07:51:38;101341.44;;;6.95;76.60
9335;BME280;4706;41.844;26.082;2023-01-26T07:54:09;101360.09;;;6.98;76.41
9335;BME280;4706;41.844;26.082;2023-01-26T07:56:35;101360.53;;;6.90;76.59
9335;BME280;4706;41.844;26.082;2023-01-26T07:59:00;101369.25;;;6.87;76.86
9335;BME280;4706;41.844;26.082;2023-01-26T08:01:26;101367.31;;;6.82;77.42
9335;BME280;4706;41.844;26.082;2023-01-26T08:03:52;101324.03;;;6.52;77.31
9335;BME280;4706;41.844;26.082;2023-01-26T08:06:19;101363.47;;;6.84;77.00
9335;BME280;4706;41.844;26.082;2023-01-26T08:08:46;101360.66;;;6.73;77.06
9335;BME280;4706;41.844;26.082;2023-01-26T08:11:16;101361.19;;;6.75;77.58
9335;BME280;4706;41.844;26.082;2023-01-26T08:13:43;101357.66;;;6.75;77.85
9335;BME280;4706;41.844;26.082;2023-01-26T08:16:10;101351.66;;;6.78;77.76
9335;BME280;4706;41.844;26.082;2023-01-26T08:18:37;101340.53;;;6.85;77.83
9335;BME280;4706;41.844;26.082;2023-01-26T08:21:03;101339.81;;;6.94;77.68
9335;BME280;4706;41.844;26.082;2023-01-26T08:23:29;101330.50;;;6.95;76.60
9335;BME280;4706;41.844;26.082;2023-01-26T08:25:59;101343.31;;;6.90;77.13
9335;BME280;4706;41.844;26.082;2023-01-26T08:28:25;101334.91;;;6.96;76.90
9335;BME280;4706;41.844;26.082;2023-01-26T08:30:50;101340.38;;;6.96;76.65
9335;BME280;4706;41.844;26.082;2023-01-26T08:33:16;101326.94;;;6.95;76.63
9335;BME280;4706;41.844;26.082;2023-01-26T08:35:41;101319.56;;;6.95;76.62
9335;BME280;4706;41.844;26.082;2023-01-26T08:38:07;101311.47;;;7.05;77.09
9335;BME280;4706;41.844;26.082;2023-01-26T08:40:32;101307.22;;;7.20;76.98
9335;BME280;4706;41.844;26.082;2023-01-26T08:42:59;101299.72;;;7.37;76.37
9335;BME280;4706;41.844;26.082;2023-01-26T08:45:27;101290.97;;;7.40;76.34
9335;BME280;4706;41.844;26.082;2023-01-26T08:47:53;101285.78;;;7.44;76.67
9335;BME280;4706;41.844;26.082;2023-01-26T08:50:18;101279.81;;;7.47;77.23
9335;BME280;4706;41.844;26.082;2023-01-26T08:52:44;101265.28;;;7.41;76.50
9335;BME280;4706;41.844;26.082;2023-01-26T08:55:10;101265.56;;;7.45;76.28
9335;BME280;4706;41.844;26.082;2023-01-26T08:57:35;101266.72;;;7.54;76.09
9335;BME280;4706;41.844;26.082;2023-01-26T09:00:01;101279.69;;;7.69;76.12
9335;BME280;4706;41.844;26.082;2023-01-26T09:02:27;101278.63;;;7.75;75.91
9335;BME280;4706;41.844;26.082;2023-01-26T09:04:53;101275.31;;;7.73;75.64
9335;BME280;4706;41.844;26.082;2023-01-26T09:07:18;101274.81;;;7.76;75.47
9335;BME280;4706;41.844;26.082;2023-01-26T09:09:44;101261.69;;;7.83;75.21
9335;BME280;4706;41.844;26.082;2023-01-26T09:12:09;101258.38;;;7.76;75.54
9335;BME280;4706;41.844;26.082;2023-01-26T09:14:34;101260.81;;;7.72;76.55
9335;BME280;4706;41.844;26.082;2023-01-26T09:17:00;101247.13;;;7.77;77.86
9335;BME280;4706;41.844;26.082;2023-01-26T09:19:25;101231.59;;;7.88;77.84
9335;BME280;4706;41.844;26.082;2023-01-26T09:21:54;101223.38;;;7.83;78.13
9335;BME280;4706;41.844;26.082;2023-01-26T09:24:20;101218.41;;;7.80;79.06
9335;BME280;4706;41.844;26.082;2023-01-26T09:26:46;101208.28;;;7.81;79.87
9335;BME280;4706;41.844;26.082;2023-01-26T09:29:12;101208.28;;;7.81;79.87
9335;BME280;4706;41.844;26.082;2023-01-26T09:31:37;101197.91;;;7.83;79.87
9335;BME280;4706;41.844;26.082;2023-01-26T09:34:04;101199.53;;;7.78;80.39
9335;BME280;4706;41.844;26.082;2023-01-26T09:36:30;101186.34;;;7.75;81.15
9335;BME280;4706;41.844;26.082;2023-01-26T09:38:55;101177.31;;;7.75;80.58
9335;BME280;4706;41.844;26.082;2023-01-26T09:44:18;101170.16;;;7.69;80.13
9335;BME280;4706;41.844;26.082;2023-01-26T09:49:50;101145.56;;;7.79;79.25
9335;BME280;4706;41.844;26.082;2023-01-26T09:52:38;101134.84;;;7.72;79.80
9335;BME280;4706;41.844;26.082;2023-01-26T09:55:14;101110.44;;;7.61;81.24
9335;BME280;4706;41.844;26.082;2023-01-26T09:57:47;101076.53;;;7.72;83.19
9335;BME280;4706;41.844;26.082;2023-01-26T10:00:27;101048.91;;;7.78;82.26
9335;BME280;4706;41.844;26.082;2023-01-26T10:03:19;101053.81;;;7.82;83.40
9335;BME280;4706;41.844;26.082;2023-01-26T10:08:19;101082.53;;;7.69;83.86
9335;BME280;4706;41.844;26.082;2023-01-26T10:10:59;101075.09;;;7.49;84.43
9335;BME280;4706;41.844;26.082;2023-01-26T10:13:27;101093.41;;;7.48;84.28
9335;BME280;4706;41.844;26.082;2023-01-26T10:15:58;101085.75;;;7.50;84.55
9335;BME280;4706;41.844;26.082;2023-01-26T10:18:36;101081.69;;;7.53;84.07
9335;BME280;4706;41.844;26.082;2023-01-26T10:21:06;101081.97;;;7.57;84.62
9335;BME280;4706;41.844;26.082;2023-01-26T10:23:34;101097.56;;;7.61;84.83
9335;BME280;4706;41.844;26.082;2023-01-26T10:26:15;101093.72;;;7.57;83.78
9335;BME280;4706;41.844;26.082;2023-01-26T10:28:45;101087.41;;;7.51;83.31
9335;BME280;4706;41.844;26.082;2023-01-26T10:31:20;101080.44;;;7.23;84.43
9335;BME280;4706;41.844;26.082;2023-01-26T10:33:55;101071.34;;;7.13;84.21
9335;BME280;4706;41.844;26.082;2023-01-26T10:36:21;101064.25;;;7.12;85.40
9335;BME280;4706;41.844;26.082;2023-01-26T10:38:48;101048.34;;;7.09;85.68
9335;BME280;4706;41.844;26.082;2023-01-26T10:43:53;101039.56;;;7.01;86.68
9335;BME280;4706;41.844;26.082;2023-01-26T10:48:55;101039.81;;;6.95;85.82
9335;BME280;4706;41.844;26.082;2023-01-26T10:51:32;101018.22;;;6.98;86.29
9335;BME280;4706;41.844;26.082;2023-01-26T10:54:23;101023.16;;;7.06;86.02
9335;BME280;4706;41.844;26.082;2023-01-26T10:56:52;101019.91;;;7.04;85.80
9335;BME280;4706;41.844;26.082;2023-01-26T11:01:55;101004.31;;;7.05;86.96
9335;BME280;4706;41.844;26.082;2023-01-26T11:04:22;101002.41;;;7.11;87.11
9335;BME280;4706;41.844;26.082;2023-01-26T11:06:48;100989.59;;;7.16;86.90
9335;BME280;4706;41.844;26.082;2023-01-26T11:11:40;100974.81;;;7.17;88.10
9335;BME280;4706;41.844;26.082;2023-01-26T11:14:16;100970.44;;;7.21;87.90
9335;BME280;4706;41.844;26.082;2023-01-26T11:17:13;100962.22;;;7.21;88.05
9335;BME280;4706;41.844;26.082;2023-01-26T11:22:21;100952.47;;;7.46;87.52
9335;BME280;4706;41.844;26.082;2023-01-26T11:27:37;100948.91;;;7.50;87.40
9335;BME280;4706;41.844;26.082;2023-01-26T11:32:59;100943.16;;;7.47;87.03
9335;BME280;4706;41.844;26.082;2023-01-26T11:36:04;100933.56;;;7.44;87.13
9335;BME280;4706;41.844;26.082;2023-01-26T11:38:44;100924.84;;;7.52;87.83
9335;BME280;4706;41.844;26.082;2023-01-26T11:41:31;100917.44;;;7.58;86.52
9335;BME280;4706;41.844;26.082;2023-01-26T11:46:46;100931.38;;;7.51;88.15
9335;BME280;4706;41.844;26.082;2023-01-26T11:54:40;100932.47;;;7.30;87.39
9335;BME280;4706;41.844;26.082;2023-01-26T11:57:31;100932.41;;;7.15;87.64
9335;BME280;4706;41.844;26.082;2023-01-26T12:00:11;100934.06;;;7.16;88.86
9335;BME280;4706;41.844;26.082;2023-01-26T12:02:38;100939.25;;;7.17;89.02
9335;BME280;4706;41.844;26.082;2023-01-26T12:05:19;100935.19;;;7.30;88.39
9335;BME280;4706;41.844;26.082;2023-01-26T12:10:29;100933.53;;;7.19;88.89
9335;BME280;4706;41.844;26.082;2023-01-26T12:13:06;100927.72;;;7.05;88.47
9335;BME280;4706;41.844;26.082;2023-01-26T12:15:37;100926.31;;;6.92;90.12
9335;BME280;4706;41.844;26.082;2023-01-26T12:20:41;100916.66;;;6.74;91.01
9335;BME280;4706;41.844;26.082;2023-01-26T12:25:38;100891.25;;;6.74;91.26
9335;BME280;4706;41.844;26.082;2023-01-26T12:28:20;100889.63;;;6.78;91.74
9335;BME280;4706;41.844;26.082;2023-01-26T12:30:50;100896.44;;;6.80;91.64
9335;BME280;4706;41.844;26.082;2023-01-26T12:33:17;100908.75;;;6.78;92.07
9335;BME280;4706;41.844;26.082;2023-01-26T12:38:34;100909.81;;;6.67;92.34
9335;BME280;4706;41.844;26.082;2023-01-26T12:41:18;100922.44;;;6.88;92.48
9335;BME280;4706;41.844;26.082;2023-01-26T12:46:27;100923.88;;;6.96;91.47
9335;BME280;4706;41.844;26.082;2023-01-26T12:49:20;100923.59;;;7.02;91.68
9335;BME280;4706;41.844;26.082;2023-01-26T12:51:52;100926.63;;;7.01;91.91
9335;BME280;4706;41.844;26.082;2023-01-26T12:54:33;100915.09;;;6.94;91.37
9335;BME280;4706;41.844;26.082;2023-01-26T12:57:05;100915.88;;;6.84;92.26
9335;BME280;4706;41.844;26.082;2023-01-26T12:59:36;100895.69;;;6.95;92.01
9335;BME280;4706;41.844;26.082;2023-01-26T13:04:42;100874.97;;;7.15;92.94
9335;BME280;4706;41.844;26.082;2023-01-26T13:07:27;100868.38;;;7.05;92.73
9335;BME280;4706;41.844;26.082;2023-01-26T13:10:20;100871.41;;;7.24;92.65
9335;BME280;4706;41.844;26.082;2023-01-26T13:15:16;100853.38;;;7.44;92.32
9335;BME280;4706;41.844;26.082;2023-01-26T13:28:36;100809.28;;;7.81;91.37
9335;BME280;4706;41.844;26.082;2023-01-26T13:31:04;100801.31;;;7.90;91.35
9335;BME280;4706;41.844;26.082;2023-01-26T13:33:30;100796.09;;;7.93;91.37
9335;BME280;4706;41.844;26.082;2023-01-26T13:35:57;100792.84;;;7.91;91.29
9335;BME280;4706;41.844;26.082;2023-01-26T13:38:34;100795.28;;;7.93;89.84
9335;BME280;4706;41.844;26.082;2023-01-26T13:41:06;100793.41;;;7.83;89.29
9335;BME280;4706;41.844;26.082;2023-01-26T13:43:53;100784.13;;;7.79;89.77
9335;BME280;4706;41.844;26.082;2023-01-26T13:48:58;100788.78;;;7.78;90.45
9335;BME280;4706;41.844;26.082;2023-01-26T13:51:30;100785.75;;;7.75;90.22
9335;BME280;4706;41.844;26.082;2023-01-26T13:56:32;100807.41;;;7.71;90.12
9335;BME280;4706;41.844;26.082;2023-01-26T14:02:00;100779.44;;;7.85;89.76
9335;BME280;4706;41.844;26.082;2023-01-26T14:04:29;100771.78;;;7.87;88.33
9335;BME280;4706;41.844;26.082;2023-01-26T14:07:00;100757.28;;;7.71;89.14
9335;BME280;4706;41.844;26.082;2023-01-26T14:09:29;100762.50;;;7.62;89.60
9335;BME280;4706;41.844;26.082;2023-01-26T14:11:59;100753.25;;;7.38;90.74
9335;BME280;4706;41.844;26.082;2023-01-26T14:14:28;100748.03;;;7.36;91.86
9335;BME280;4706;41.844;26.082;2023-01-26T14:16:57;100746.94;;;7.37;91.49
9335;BME280;4706;41.844;26.082;2023-01-26T14:19:23;100743.94;;;7.34;92.11
9335;BME280;4706;41.844;26.082;2023-01-26T14:21:57;100726.69;;;7.38;91.70
9335;BME280;4706;41.844;26.082;2023-01-26T14:24:35;100714.34;;;7.56;91.18
9335;BME280;4706;41.844;26.082;2023-01-26T14:27:14;100714.34;;;7.56;91.22
9335;BME280;4706;41.844;26.082;2023-01-26T14:29:46;100704.78;;;7.53;91.39
9335;BME280;4706;41.844;26.082;2023-01-26T14:32:15;100717.38;;;7.49;91.82
9335;BME280;4706;41.844;26.082;2023-01-26T14:34:57;100701.75;;;7.55;91.75
9335;BME280;4706;41.844;26.082;2023-01-26T14:37:23;100686.41;;;7.59;90.87
9335;BME280;4706;41.844;26.082;2023-01-26T14:39:49;100660.44;;;7.57;91.05